Terminal Aerodrome Forecast
Issued by NWS Columbia, SC

Home | Current Version | Previous Version | Text Only | Print | Product List | Glossary On
Versions: 1 2 3 4 5 6 7 8 9 10 11 12 13 14 15 16 17 18 19 20 21 22 23 24 25 26 27 28 29
305
FTUS42 KCAE 190052 AAA
TAFCAE
TAF AMD
KCAE 190052Z 1901/1924 23013KT P6SM BKN035 WS020/22045KT
      TEMPO 1906/1910 23016G26KT 3SM SHRA OVC020
     FM191200 29012KT P6SM SKC=

USA.gov is the U.S. government's official web portal to all federal, state and local government web resources and services.